Time;durP1;ratioP1;P1;durP2;ratioP2;P2;SDS_P1;SDS_P2;PMS_P1;PMS_P2;Temp;Humidity;BMP_temperature;BMP_pressure;BME280_temperature;BME280_humidity;BME280_pressure;Samples;Min_cycle;Max_cycle;Signal;HPM_P1;HPM_P2
2022/10/24 00:00:43;;;;;;;;;8.00;8.00;;;;;17.70;83.91;100225.75;4945113;28;45337;-71
2022/10/24 00:03:09;;;;;;;;;8.00;8.00;;;;;17.77;84.90;100247.13;4941049;28;45619;-71
2022/10/24 00:05:34;;;;;;;;;12.00;11.00;;;;;17.70;84.38;100243.72;4940974;28;45377;-71
2022/10/24 00:08:00;;;;;;;;;5.67;5.67;;;;;17.64;84.88;100237.44;4940894;28;45352;-71
2022/10/24 00:10:25;;;;;;;;;9.00;8.00;;;;;17.67;85.17;100245.03;4940919;28;45239;-71
2022/10/24 00:12:52;;;;;;;;;7.33;7.00;;;;;17.60;85.52;100247.03;4944984;28;45376;-71
2022/10/24 00:15:18;;;;;;;;;8.00;8.00;;;;;17.51;85.53;100241.97;4963913;28;45449;-71
2022/10/24 00:17:43;;;;;;;;;10.67;8.67;;;;;17.48;86.20;100239.75;4940583;28;45297;-71
2022/10/24 00:20:10;;;;;;;;;9.00;7.00;;;;;17.40;85.90;100235.56;4940712;28;45373;-71
2022/10/24 00:22:35;;;;;;;;;9.00;8.00;;;;;17.41;86.49;100236.38;4948317;28;45402;-71
2022/10/24 00:25:00;;;;;;;;;8.33;7.00;;;;;17.40;86.85;100232.88;4946338;28;45334;-71
2022/10/24 00:27:26;;;;;;;;;7.67;7.33;;;;;17.36;86.84;100236.25;4940834;28;45420;-71
2022/10/24 00:29:51;;;;;;;;;9.33;9.00;;;;;17.33;87.19;100242.88;4951030;28;48159;-71
2022/10/24 00:32:16;;;;;;;;;7.67;7.67;;;;;17.25;87.08;100233.31;4942596;28;45364;-72
2022/10/24 00:34:42;;;;;;;;;6.67;6.67;;;;;17.23;86.97;100232.72;4949136;28;45336;-71
2022/10/24 00:37:07;;;;;;;;;6.00;6.00;;;;;17.26;87.73;100240.31;4944503;28;45358;-71
2022/10/24 00:39:32;;;;;;;;;7.00;6.00;;;;;17.26;87.98;100237.66;4946998;28;46926;-71
2022/10/24 00:41:58;;;;;;;;;3.00;3.00;;;;;17.24;87.48;100230.88;4945253;28;45794;-71
2022/10/24 00:44:25;;;;;;;;;7.00;5.33;;;;;17.33;88.24;100234.03;4958444;28;45298;-71
2022/10/24 00:46:53;;;;;;;;;7.00;5.00;;;;;17.36;88.35;100236.25;4948380;28;45424;-71
2022/10/24 00:49:24;;;;;;;;;5.00;5.00;;;;;17.38;88.29;100242.19;4940471;28;45391;-71
2022/10/24 00:51:53;;;;;;;;;3.33;3.33;;;;;17.40;88.34;100229.38;4940598;28;45263;-71
2022/10/24 00:54:19;;;;;;;;;4.67;4.67;;;;;17.40;88.36;100235.56;4940396;28;45369;-72
2022/10/24 00:56:55;;;;;;;;;4.33;4.33;;;;;17.37;88.65;100230.66;4943410;28;45440;-71
2022/10/24 00:59:21;;;;;;;;;3.00;3.00;;;;;17.42;88.64;100235.34;4943451;28;46233;-71
2022/10/24 01:01:47;;;;;;;;;3.00;3.00;;;;;17.43;88.41;100234.28;4948749;28;45449;-71
2022/10/24 01:04:13;;;;;;;;;3.00;3.00;;;;;17.43;88.59;100245.03;4972292;28;45379;-72
2022/10/24 01:07:04;;;;;;;;;4.00;4.00;;;;;17.43;88.50;100234.28;4943571;28;45546;-71
2022/10/24 01:09:37;;;;;;;;;3.67;3.00;;;;;17.41;89.05;100255.16;4943625;28;45526;-72
2022/10/24 01:12:18;;;;;;;;;2.33;2.33;;;;;17.42;89.20;100251.44;4943769;28;45281;-71
2022/10/24 01:14:56;;;;;;;;;5.67;4.67;;;;;17.38;89.12;100253.78;4959203;28;45400;-71
2022/10/24 01:17:37;;;;;;;;;1.67;1.00;;;;;17.38;89.00;100251.09;4952171;28;45363;-71
2022/10/24 01:20:21;;;;;;;;;3.00;2.00;;;;;17.43;89.16;100258.44;4943362;28;45648;-71
2022/10/24 01:22:53;;;;;;;;;3.33;3.33;;;;;17.38;89.11;100250.25;4952799;28;45333;-71
2022/10/24 01:25:37;;;;;;;;;3.33;3.00;;;;;17.45;89.09;100260.91;4946639;28;45479;-71
2022/10/24 01:28:20;;;;;;;;;1.67;1.67;;;;;17.41;89.12;100264.06;4943420;28;45416;-71
2022/10/24 01:31:00;;;;;;;;;4.00;3.00;;;;;17.45;89.36;100266.28;4942892;28;46275;-71
2022/10/24 01:33:31;;;;;;;;;2.00;2.00;;;;;17.41;89.22;100266.75;4943383;28;45302;-71
2022/10/24 01:36:04;;;;;;;;;2.00;2.00;;;;;17.44;89.02;100272.69;4943536;28;45326;-71
2022/10/24 01:38:32;;;;;;;;;2.33;2.00;;;;;17.44;89.17;100270.81;4970811;28;46193;-71
2022/10/24 01:41:09;;;;;;;;;5.00;1.67;;;;;17.40;89.36;100270.47;4943272;28;46200;-71
2022/10/24 01:43:40;;;;;;;;;3.00;3.00;;;;;17.43;89.15;100285.31;4954244;28;45490;-71
2022/10/24 01:46:11;;;;;;;;;4.00;4.00;;;;;17.46;88.89;100290.22;4943040;28;45325;-71
2022/10/24 01:48:48;;;;;;;;;2.67;2.33;;;;;17.48;89.48;100285.41;4953827;28;47259;-71
2022/10/24 01:51:18;;;;;;;;;1.33;1.33;;;;;17.46;88.80;100279.47;4956600;28;46587;-71
2022/10/24 01:53:45;;;;;;;;;1.33;1.33;;;;;17.48;88.83;100288.09;4969895;28;45472;-71
2022/10/24 01:56:10;;;;;;;;;2.67;1.33;;;;;17.51;88.85;100286.84;4944092;28;45440;-71
2022/10/24 01:58:36;;;;;;;;;2.00;1.00;;;;;17.52;89.17;100299.22;4942926;28;45325;-71
2022/10/24 02:01:06;;;;;;;;;2.67;1.33;;;;;17.48;89.03;100296.16;4947337;28;46346;-71
2022/10/24 02:03:40;;;;;;;;;4.33;2.00;;;;;17.48;88.90;100300.75;4943064;28;45339;-72
2022/10/24 02:06:22;;;;;;;;;1.00;1.00;;;;;17.50;88.88;100290.56;4942523;28;45469;-72
2022/10/24 02:08:53;;;;;;;;;1.00;1.00;;;;;17.52;88.83;100293.84;4942016;28;45336;-71
2022/10/24 02:11:18;;;;;;;;;2.67;2.67;;;;;17.49;89.02;100297.00;4942802;28;45513;-71
2022/10/24 02:13:51;;;;;;;;;1.00;1.00;;;;;17.48;88.89;100301.53;4942858;28;45298;-71
2022/10/24 02:16:19;;;;;;;;;3.00;0.33;;;;;17.52;89.37;100291.16;4971480;28;45532;-71
2022/10/24 02:18:48;;;;;;;;;0.67;0.67;;;;;17.52;88.98;100299.22;4950858;28;45415;-72
2022/10/24 02:21:47;;;;;;;;;1.00;1.00;;;;;17.52;89.05;100291.16;4947369;28;46486;-71
2022/10/24 02:24:54;;;;;;;;;3.00;2.00;;;;;17.50;89.52;100283.34;4942579;28;45321;-72
2022/10/24 02:27:34;;;;;;;;;1.00;1.00;;;;;17.51;89.20;100284.16;4920721;28;45444;-71
2022/10/24 02:30:02;;;;;;;;;3.00;1.67;;;;;17.50;89.29;100275.28;4921039;28;45313;-71
2022/10/24 02:32:32;;;;;;;;;2.00;1.67;;;;;17.45;89.28;100264.38;4933660;28;46204;-71
2022/10/24 02:35:01;;;;;;;;;0.33;0.33;;;;;17.49;89.59;100264.75;4942353;28;46411;-70
2022/10/24 02:37:29;;;;;;;;;1.67;1.00;;;;;17.49;90.07;100254.84;4946809;28;45318;-71
2022/10/24 02:39:56;;;;;;;;;1.00;1.00;;;;;17.46;89.47;100258.00;4960345;28;45904;-71
2022/10/24 02:42:24;;;;;;;;;0.33;0.33;;;;;17.43;90.03;100263.81;4944783;28;46147;-72
2022/10/24 02:44:49;;;;;;;;;1.00;1.00;;;;;17.39;90.16;100254.59;4949959;28;45430;-71
2022/10/24 02:47:16;;;;;;;;;3.00;3.00;;;;;17.44;90.44;100265.44;4960649;28;45243;-71
2022/10/24 02:49:42;;;;;;;;;4.00;2.00;;;;;17.41;90.48;100260.53;4942305;28;45285;-71
2022/10/24 02:52:07;;;;;;;;;1.33;1.33;;;;;17.36;90.59;100261.22;4942031;28;45295;-71
2022/10/24 02:54:33;;;;;;;;;3.00;1.00;;;;;17.33;90.72;100250.16;4941988;28;45347;-71
2022/10/24 02:57:02;;;;;;;;;1.67;1.67;;;;;17.36;90.40;100263.13;4953436;28;45516;-71
2022/10/24 02:59:28;;;;;;;;;1.67;1.00;;;;;17.30;91.18;100254.09;4973956;28;45492;-72
2022/10/24 03:01:54;;;;;;;;;1.00;1.00;;;;;17.32;91.16;100260.06;4961343;28;45227;-72
2022/10/24 03:04:19;;;;;;;;;1.33;0.00;;;;;17.28;91.36;100258.91;4947667;28;45222;-71
2022/10/24 03:06:45;;;;;;;;;2.67;1.00;;;;;17.29;91.75;100258.66;4961301;28;45452;-72
2022/10/24 03:09:10;;;;;;;;;1.00;0.67;;;;;17.29;91.77;100263.22;4959682;28;46917;-72
2022/10/24 03:11:36;;;;;;;;;3.00;2.00;;;;;17.24;91.83;100258.53;4941829;28;46229;-71
2022/10/24 03:14:02;;;;;;;;;1.00;1.00;;;;;17.21;92.00;100252.81;4953238;28;45175;-71
2022/10/24 03:16:27;;;;;;;;;2.33;2.33;;;;;17.18;92.81;100248.69;4944044;28;45342;-72
2022/10/24 03:18:53;;;;;;;;;1.00;1.00;;;;;17.20;93.06;100253.84;4941656;28;45313;-72
2022/10/24 03:21:18;;;;;;;;;0.67;0.67;;;;;17.10;92.44;100241.00;4954109;28;47445;-71
2022/10/24 03:23:43;;;;;;;;;2.00;1.00;;;;;17.10;93.18;100241.81;4954772;28;45477;-72
2022/10/24 03:26:09;;;;;;;;;1.33;1.33;;;;;17.12;93.52;100249.66;4942010;28;45277;-71
2022/10/24 03:28:34;;;;;;;;;2.67;1.00;;;;;17.16;93.58;100256.19;4953859;28;47124;-71
2022/10/24 03:30:59;;;;;;;;;4.00;2.00;;;;;17.12;93.57;100246.97;4941603;28;45293;-71
2022/10/24 03:33:25;;;;;;;;;3.00;1.00;;;;;17.11;93.38;100245.31;4941658;28;45337;-71
2022/10/24 03:35:52;;;;;;;;;2.00;1.33;;;;;17.15;93.48;100260.72;4941426;28;45372;-71
2022/10/24 03:38:18;;;;;;;;;1.33;1.00;;;;;17.05;93.39;100247.03;4941330;28;45462;-73
2022/10/24 03:40:43;;;;;;;;;2.33;0.00;;;;;17.13;93.86;100278.13;4969872;28;47511;-71
2022/10/24 03:43:08;;;;;;;;;4.33;2.00;;;;;17.12;93.78;100263.88;4941489;28;45298;-71
2022/10/24 03:45:34;;;;;;;;;1.67;1.67;;;;;17.08;93.84;100278.81;4941335;28;45259;-72
2022/10/24 03:47:59;;;;;;;;;1.00;1.00;;;;;17.07;94.35;100279.03;4941490;28;45235;-71
2022/10/24 03:50:25;;;;;;;;;3.67;2.00;;;;;17.07;94.39;100279.03;4941317;28;45355;-71
2022/10/24 03:52:50;;;;;;;;;1.00;0.67;;;;;17.10;94.32;100294.69;4941186;28;45179;-71
2022/10/24 03:55:15;;;;;;;;;1.33;1.33;;;;;17.10;94.61;100292.00;4941399;28;45142;-71
2022/10/24 03:57:41;;;;;;;;;3.00;1.33;;;;;17.09;94.55;100303.81;4941228;28;45665;-71
2022/10/24 04:00:07;;;;;;;;;1.33;1.00;;;;;17.04;94.36;100302.56;4941094;28;45469;-71
2022/10/24 04:02:32;;;;;;;;;1.00;1.00;;;;;17.02;94.71;100301.16;4945721;28;45896;-72
2022/10/24 04:04:58;;;;;;;;;2.00;1.00;;;;;17.02;95.08;100298.47;4948317;28;45359;-71
2022/10/24 04:07:23;;;;;;;;;4.00;2.00;;;;;17.04;95.25;100299.88;4947323;28;47543;-71
2022/10/24 04:09:48;;;;;;;;;2.67;1.33;;;;;16.96;95.15;100288.66;4940748;28;45333;-72
2022/10/24 04:12:14;;;;;;;;;2.00;2.00;;;;;17.02;95.16;100296.63;4941027;28;45549;-71
2022/10/24 04:14:40;;;;;;;;;2.67;1.00;;;;;16.97;95.54;100284.94;4940750;28;45337;-72
2022/10/24 04:17:05;;;;;;;;;1.67;1.67;;;;;16.95;95.85;100290.53;4941173;28;45457;-71
2022/10/24 04:19:31;;;;;;;;;1.67;1.00;;;;;16.96;95.82;100284.09;4940842;28;45386;-71
2022/10/24 04:21:56;;;;;;;;;3.67;1.33;;;;;16.96;96.00;100305.59;4946080;28;45336;-73
2022/10/24 04:24:22;;;;;;;;;2.00;2.00;;;;;16.95;95.98;100301.28;4959109;28;45368;-71
2022/10/24 04:26:47;;;;;;;;;2.33;1.00;;;;;16.89;96.33;100302.19;4945598;28;45325;-71
2022/10/24 04:29:12;;;;;;;;;1.67;1.33;;;;;16.90;96.88;100310.00;4945753;28;47386;-71
2022/10/24 04:31:38;;;;;;;;;2.33;1.67;;;;;16.87;96.76;100309.63;4947679;28;45269;-71
2022/10/24 04:34:04;;;;;;;;;0.00;0.00;;;;;16.86;97.01;100321.41;4940758;28;45452;-71
2022/10/24 04:36:29;;;;;;;;;4.00;2.00;;;;;16.83;96.76;100311.13;4940896;28;45337;-71
2022/10/24 04:38:55;;;;;;;;;2.67;1.67;;;;;16.87;97.26;100326.56;4942908;28;46297;-71
2022/10/24 04:41:20;;;;;;;;;4.00;2.00;;;;;16.91;96.90;100325.03;4960205;28;45384;-72
2022/10/24 04:43:46;;;;;;;;;3.33;2.33;;;;;16.92;97.13;100336.63;4959364;28;45227;-72
2022/10/24 04:46:11;;;;;;;;;1.33;0.00;;;;;16.84;96.80;100323.50;4940608;28;45207;-71
2022/10/24 04:48:36;;;;;;;;;2.00;1.00;;;;;16.89;96.85;100332.53;4940421;28;46031;-71
2022/10/24 04:51:02;;;;;;;;;4.00;2.00;;;;;16.87;97.03;100347.19;4944864;28;45416;-70
2022/10/24 04:53:27;;;;;;;;;3.00;2.00;;;;;16.86;97.21;100342.88;4958757;28;45406;-71
2022/10/24 04:55:53;;;;;;;;;2.33;2.00;;;;;16.86;97.46;100348.25;4943835;28;45285;-71
2022/10/24 04:58:18;;;;;;;;;6.67;1.67;;;;;16.95;97.54;100351.44;4940332;28;46101;-72
2022/10/24 05:00:47;;;;;;;;;6.33;2.00;;;;;16.90;97.30;100338.69;4944899;28;45353;-71
2022/10/24 05:03:13;;;;;;;;;3.00;2.00;;;;;16.96;96.99;100353.91;4940459;28;45379;-71
2022/10/24 05:05:38;;;;;;;;;3.67;2.00;;;;;16.96;97.28;100364.63;4940060;28;45395;-70
2022/10/24 05:08:03;;;;;;;;;2.33;1.00;;;;;16.90;97.18;100352.94;4940006;28;46695;-71
2022/10/24 05:10:29;;;;;;;;;3.00;2.00;;;;;16.87;97.08;100355.25;4949099;28;45251;-71
2022/10/24 05:12:54;;;;;;;;;3.00;2.00;;;;;16.91;97.46;100365.31;4943619;28;45266;-71
2022/10/24 05:15:20;;;;;;;;;3.00;2.33;;;;;16.96;97.50;100372.69;4940119;28;45536;-71
2022/10/24 05:17:46;;;;;;;;;2.67;1.67;;;;;16.94;97.16;100373.97;4940247;28;46023;-70
2022/10/24 05:20:11;;;;;;;;;3.00;2.00;;;;;16.96;97.28;100375.38;4940189;28;45335;-70
2022/10/24 05:22:36;;;;;;;;;2.00;1.33;;;;;16.90;97.73;100377.09;4948300;28;45262;-71
2022/10/24 05:25:03;;;;;;;;;3.33;3.33;;;;;16.94;97.45;100382.00;4945711;28;45552;-71
2022/10/24 05:27:28;;;;;;;;;3.00;1.33;;;;;16.93;97.82;100394.59;4958274;28;48307;-71
2022/10/24 05:29:54;;;;;;;;;1.33;1.00;;;;;16.92;97.83;100392.97;4959289;28;46683;-70
2022/10/24 05:32:20;;;;;;;;;3.00;2.00;;;;;16.94;98.04;100385.50;4941567;28;45392;-71
2022/10/24 05:34:46;;;;;;;;;3.00;2.00;;;;;16.95;97.85;100399.75;4950186;28;45348;-71
2022/10/24 05:37:11;;;;;;;;;3.33;3.00;;;;;16.96;98.37;100404.91;4942953;28;45336;-71
2022/10/24 05:39:37;;;;;;;;;1.67;0.33;;;;;16.98;98.34;100397.44;4939946;28;45317;-71
2022/10/24 05:42:03;;;;;;;;;3.00;2.00;;;;;16.96;97.85;100394.16;4952781;28;45396;-71
2022/10/24 05:44:28;;;;;;;;;2.00;2.00;;;;;17.00;98.07;100406.06;4947885;28;45735;-71
2022/10/24 05:46:53;;;;;;;;;4.67;3.00;;;;;16.94;97.92;100396.25;4950703;28;45454;-71
2022/10/24 05:49:20;;;;;;;;;4.00;2.00;;;;;16.97;97.98;100398.47;4960928;28;45531;-71
2022/10/24 05:51:45;;;;;;;;;2.00;2.00;;;;;16.91;98.28;100402.06;4961351;28;45382;-70
2022/10/24 05:54:11;;;;;;;;;4.00;2.67;;;;;16.90;98.40;100401.25;4962271;28;45293;-71
2022/10/24 05:56:36;;;;;;;;;4.00;4.00;;;;;16.96;98.40;100417.47;4954303;28;45270;-71
2022/10/24 05:59:02;;;;;;;;;6.00;3.67;;;;;16.97;98.13;100417.25;4942794;28;45313;-71
2022/10/24 06:01:28;;;;;;;;;2.00;2.00;;;;;16.97;98.76;100422.63;4947965;28;45376;-71
2022/10/24 06:03:54;;;;;;;;;3.67;1.67;;;;;16.98;98.36;100423.47;4942889;28;45364;-71
2022/10/24 06:06:19;;;;;;;;;4.33;3.67;;;;;16.97;98.31;100425.31;4955790;28;48319;-71
2022/10/24 06:08:44;;;;;;;;;3.67;1.67;;;;;16.94;98.24;100406.97;4969604;28;45371;-70
2022/10/24 06:11:12;;;;;;;;;3.00;1.67;;;;;16.96;98.55;100418.31;4950192;28;45384;-71
2022/10/24 06:13:38;;;;;;;;;3.33;3.00;;;;;16.96;98.79;100406.75;4952789;28;45429;-71
2022/10/24 06:16:09;;;;;;;;;1.00;1.00;;;;;16.96;99.04;100415.63;4956246;28;45234;-72
2022/10/24 06:18:36;;;;;;;;;5.33;2.67;;;;;17.00;98.61;100414.13;4969620;28;46457;-70
2022/10/24 06:21:04;;;;;;;;;6.33;3.33;;;;;16.99;98.93;100417.03;4943956;28;45329;-72
2022/10/24 06:23:29;;;;;;;;;2.00;1.33;;;;;16.95;98.96;100413.16;4969234;28;46985;-71
2022/10/24 06:25:55;;;;;;;;;5.67;3.33;;;;;16.96;98.70;100418.31;4948405;28;47227;-72
2022/10/24 06:28:20;;;;;;;;;5.33;2.67;;;;;16.88;98.91;100410.59;4948713;28;45285;-71
2022/10/24 06:30:47;;;;;;;;;3.67;3.00;;;;;16.93;99.24;100434.88;4942361;28;45269;-72
2022/10/24 06:33:13;;;;;;;;;1.00;1.00;;;;;16.91;98.77;100427.03;4942432;28;45637;-72
2022/10/24 06:35:38;;;;;;;;;6.67;4.00;;;;;16.90;98.62;100427.25;4942064;28;46228;-72
2022/10/24 06:38:04;;;;;;;;;3.33;1.33;;;;;16.90;99.21;100433.47;4954492;28;45497;-72
2022/10/24 06:40:29;;;;;;;;;2.67;2.67;;;;;16.89;99.06;100428.31;4946177;28;45386;-72
2022/10/24 06:42:55;;;;;;;;;2.00;2.00;;;;;16.87;99.08;100433.91;4965237;28;46307;-71
2022/10/24 06:45:21;;;;;;;;;4.00;1.67;;;;;16.84;99.01;100420.09;4942118;28;45422;-72
2022/10/24 06:47:47;;;;;;;;;3.00;2.67;;;;;16.79;98.98;100418.09;4947649;28;45527;-72
2022/10/24 06:50:13;;;;;;;;;5.67;2.67;;;;;16.88;99.00;100438.22;4950442;28;45482;-71
2022/10/24 06:52:38;;;;;;;;;2.00;1.00;;;;;16.85;99.21;100440.56;4957148;28;46257;-71
2022/10/24 06:55:04;;;;;;;;;1.00;1.00;;;;;16.83;99.37;100443.47;4952182;28;45947;-71
2022/10/24 06:57:29;;;;;;;;;4.00;2.00;;;;;16.85;99.16;100453.97;4941999;28;45448;-71
2022/10/24 06:59:54;;;;;;;;;1.33;1.33;;;;;16.84;99.46;100453.13;4942074;28;45251;-71
2022/10/24 07:02:20;;;;;;;;;2.00;1.00;;;;;16.83;99.44;100456.03;4946967;28;45220;-71
2022/10/24 07:04:45;;;;;;;;;2.00;1.00;;;;;16.81;99.16;100450.06;4956839;28;45321;-72
2022/10/24 07:07:20;;;;;;;;;4.67;2.00;;;;;16.77;99.20;100458.56;4959615;28;45349;-71
2022/10/24 07:09:55;;;;;;;;;4.00;2.33;;;;;16.78;99.50;100472.81;4947553;28;45273;-71
2022/10/24 07:12:25;;;;;;;;;6.33;2.00;;;;;16.78;100.00;100473.63;4949684;28;45309;-71
2022/10/24 07:14:51;;;;;;;;;8.33;4.00;;;;;16.77;99.78;100473.88;4941147;28;45505;-71
2022/10/24 07:17:19;;;;;;;;;5.33;4.00;;;;;16.70;99.93;100467.75;4966864;28;46177;-72
2022/10/24 07:19:45;;;;;;;;;5.67;3.33;;;;;16.73;99.99;100483.41;4944450;28;45298;-71
2022/10/24 07:22:13;;;;;;;;;5.00;4.00;;;;;16.76;100.00;100491.81;4948748;28;45933;-71
2022/10/24 07:24:38;;;;;;;;;2.00;2.00;;;;;16.78;100.00;100497.78;4949250;28;45413;-71
2022/10/24 07:27:03;;;;;;;;;3.33;2.67;;;;;16.81;100.00;100493.84;4941595;28;45317;-72
2022/10/24 07:29:29;;;;;;;;;5.00;3.33;;;;;16.77;100.00;100498.00;4941762;28;45401;-71
2022/10/24 07:31:54;;;;;;;;;7.00;2.00;;;;;16.83;100.00;100499.81;4949847;28;45366;-71
2022/10/24 07:34:20;;;;;;;;;2.33;2.00;;;;;16.81;100.00;100495.69;4957343;28;48198;-72
2022/10/24 07:36:45;;;;;;;;;4.00;2.33;;;;;16.85;100.00;100503.06;4944754;28;45434;-72
2022/10/24 07:39:12;;;;;;;;;4.00;4.00;;;;;16.89;99.71;100506.97;4956667;28;45491;-72
2022/10/24 07:41:42;;;;;;;;;4.00;3.67;;;;;16.92;99.85;100508.41;4964895;28;46192;-73
2022/10/24 07:44:09;;;;;;;;;4.33;4.33;;;;;16.89;99.88;100517.72;4959989;28;45345;-73
2022/10/24 07:46:34;;;;;;;;;4.00;2.67;;;;;16.88;100.00;100510.69;4955826;28;45365;-73
2022/10/24 07:48:59;;;;;;;;;6.00;4.33;;;;;16.92;99.68;100527.97;4946508;28;45571;-72
2022/10/24 07:51:27;;;;;;;;;3.33;3.00;;;;;16.94;99.53;100527.75;4950308;28;51214;-72
2022/10/24 07:53:53;;;;;;;;;8.33;4.00;;;;;16.97;99.91;100531.88;4969395;28;48096;-71
2022/10/24 07:56:18;;;;;;;;;7.00;3.67;;;;;16.99;99.87;100530.63;4941058;28;45421;-72
2022/10/24 07:58:45;;;;;;;;;6.00;2.33;;;;;17.03;100.00;100544.44;4940694;28;45703;-71
2022/10/24 08:01:17;;;;;;;;;3.67;3.00;;;;;17.07;99.97;100547.50;4964735;28;46140;-72
2022/10/24 08:03:43;;;;;;;;;2.00;2.00;;;;;17.10;99.96;100547.06;4951615;28;45334;-72
2022/10/24 08:06:12;;;;;;;;;5.33;3.33;;;;;17.13;100.00;100546.63;4954206;28;45590;-72
2022/10/24 08:08:37;;;;;;;;;3.67;2.00;;;;;17.15;100.00;100549.91;4940646;28;45240;-72
2022/10/24 08:11:10;;;;;;;;;3.67;2.00;;;;;17.13;100.00;100557.34;4956811;28;45631;-72
2022/10/24 08:13:35;;;;;;;;;6.33;5.00;;;;;17.16;100.00;100567.66;4957181;28;45204;-73
2022/10/24 08:16:03;;;;;;;;;3.67;2.00;;;;;17.18;100.00;100559.38;4959078;28;45313;-73
2022/10/24 08:18:29;;;;;;;;;4.33;4.00;;;;;17.17;99.84;100566.59;4960140;28;45281;-72
2022/10/24 08:21:04;;;;;;;;;1.67;1.33;;;;;17.16;99.90;100564.97;4957941;28;47774;-72
2022/10/24 08:23:32;;;;;;;;;2.00;1.00;;;;;17.20;100.00;100571.53;4959348;28;46808;-73
2022/10/24 08:25:57;;;;;;;;;2.67;1.33;;;;;17.19;100.00;100567.22;4959487;28;45291;-73
2022/10/24 08:28:23;;;;;;;;;4.33;3.00;;;;;17.26;100.00;100557.22;4974361;28;45332;-72
2022/10/24 08:31:02;;;;;;;;;6.00;4.67;;;;;17.38;100.00;100567.19;4959496;28;46118;-72
2022/10/24 08:33:28;;;;;;;;;5.00;2.33;;;;;17.52;100.00;100576.78;4948803;28;45405;-72
2022/10/24 08:35:59;;;;;;;;;4.33;3.33;;;;;17.54;100.00;100563.09;4940611;28;45298;-72
2022/10/24 08:38:25;;;;;;;;;4.00;2.00;;;;;17.67;100.00;100576.38;4940945;28;45354;-73
2022/10/24 08:40:50;;;;;;;;;3.00;1.67;;;;;17.74;99.28;100581.66;4940431;28;46635;-73
2022/10/24 08:43:17;;;;;;;;;3.67;2.33;;;;;17.81;98.42;100578.91;4940668;28;45206;-75
2022/10/24 08:46:01;;;;;;;;;5.33;2.67;;;;;17.88;97.98;100600.31;4940313;28;45222;-72
2022/10/24 08:48:40;;;;;;;;;3.00;3.00;;;;;17.97;97.52;100576.59;4940677;28;45254;-73
2022/10/24 08:51:23;;;;;;;;;2.67;2.00;;;;;18.00;96.92;100573.47;4952461;28;45481;-71
2022/10/24 08:53:52;;;;;;;;;3.00;3.00;;;;;18.03;96.10;100583.78;4944574;28;45483;-72
2022/10/24 08:56:18;;;;;;;;;4.00;2.67;;;;;18.10;96.24;100587.22;4953545;28;46097;-72
2022/10/24 08:58:45;;;;;;;;;3.67;2.67;;;;;18.15;95.67;100576.59;4957955;28;45376;-72
2022/10/24 09:01:20;;;;;;;;;3.00;2.00;;;;;18.26;95.28;100574.19;4957976;28;45332;-72
2022/10/24 09:03:49;;;;;;;;;2.00;1.00;;;;;18.32;95.44;100580.50;4956609;28;48692;-72
2022/10/24 09:06:16;;;;;;;;;3.67;2.00;;;;;18.38;94.65;100588.47;4955254;28;45386;-72
2022/10/24 09:08:52;;;;;;;;;4.00;2.67;;;;;18.41;94.26;100585.31;4954332;28;45438;-73
2022/10/24 09:11:48;;;;;;;;;5.33;3.00;;;;;18.54;94.09;100578.91;4955239;28;45466;-72
2022/10/24 09:14:19;;;;;;;;;4.33;2.00;;;;;18.59;93.43;100580.91;4957016;28;46250;-72
2022/10/24 09:16:51;;;;;;;;;5.67;3.67;;;;;18.70;93.62;100594.63;4959206;28;45245;-72
2022/10/24 09:19:23;;;;;;;;;2.33;2.33;;;;;18.77;93.56;100601.50;4959649;28;45920;-73
2022/10/24 09:21:50;;;;;;;;;4.67;3.00;;;;;18.83;93.25;100589.00;4953579;28;45664;-73
2022/10/24 09:24:31;;;;;;;;;5.00;3.00;;;;;18.88;92.19;100601.75;4955858;28;46310;-73
2022/10/24 09:26:59;;;;;;;;;5.00;5.00;;;;;18.87;92.28;100605.50;4951527;28;45295;-74
2022/10/24 09:29:28;;;;;;;;;3.00;2.50;;;;;18.88;92.26;100596.38;4962241;28;46059;-73
2022/10/24 09:31:54;;;;;;;;;2.33;2.00;;;;;18.89;91.77;100593.44;4946292;28;45536;-73
2022/10/24 09:34:19;;;;;;;;;4.00;2.00;;;;;18.88;91.84;100597.19;4955873;28;46101;-72
2022/10/24 09:36:45;;;;;;;;;3.33;2.00;;;;;18.88;91.69;100607.97;4941563;28;45357;-73
2022/10/24 09:39:31;;;;;;;;;4.00;3.33;;;;;18.85;91.69;100605.72;4945032;28;45384;-73
2022/10/24 09:41:58;;;;;;;;;2.00;2.00;;;;;18.82;91.44;100610.78;4960134;28;45487;-73
2022/10/24 09:44:33;;;;;;;;;6.67;2.00;;;;;18.90;91.80;100623.88;4951435;28;47167;-73
2022/10/24 09:47:00;;;;;;;;;5.33;4.67;;;;;18.98;92.37;100637.03;4958381;28;45965;-73
2022/10/24 09:49:34;;;;;;;;;2.00;1.00;;;;;19.01;92.07;100644.59;4960212;28;45561;-72
2022/10/24 09:52:02;;;;;;;;;4.00;3.00;;;;;19.00;91.74;100626.81;4957427;28;47064;-72
2022/10/24 09:54:30;;;;;;;;;3.00;2.33;;;;;18.91;91.45;100630.91;4973446;28;47231;-72
2022/10/24 09:57:00;;;;;;;;;3.00;1.33;;;;;18.97;92.49;100643.44;4961485;28;45422;-72
2022/10/24 09:59:31;;;;;;;;;4.00;3.33;;;;;19.03;92.36;100641.69;4968587;28;45472;-72
2022/10/24 10:02:23;;;;;;;;;9.00;3.00;;;;;19.13;92.04;100646.53;4959344;28;45354;-72
2022/10/24 10:05:14;;;;;;;;;6.33;2.00;;;;;19.20;91.87;100646.41;4955030;28;45577;-72
2022/10/24 10:07:47;;;;;;;;;4.67;2.67;;;;;19.27;91.42;100636.31;4961416;28;45488;-73
2022/10/24 10:10:33;;;;;;;;;4.67;3.00;;;;;19.39;90.85;100645.22;4962169;28;45362;-72
2022/10/24 10:13:03;;;;;;;;;3.67;1.67;;;;;19.51;89.75;100631.72;4961248;28;45483;-73
2022/10/24 10:15:28;;;;;;;;;3.00;1.33;;;;;19.65;89.88;100640.38;4960814;28;45475;-72
2022/10/24 10:17:58;;;;;;;;;3.00;3.00;;;;;19.73;88.58;100625.72;4959682;28;45344;-72
2022/10/24 10:20:29;;;;;;;;;4.75;2.75;;;;;19.88;88.49;100638.69;4961359;28;45564;-74
2022/10/24 10:22:54;;;;;;;;;4.00;1.25;;;;;19.92;87.35;100641.72;4972152;28;45451;-73
2022/10/24 10:25:31;;;;;;;;;2.25;2.25;;;;;19.97;86.93;100631.03;4964719;28;47541;-73
2022/10/24 10:27:57;;;;;;;;;4.50;3.50;;;;;19.97;86.78;100638.31;4960787;28;45419;-74
2022/10/24 10:30:23;;;;;;;;;2.75;2.00;;;;;20.01;86.46;100636.78;4959444;28;45329;-72
2022/10/24 10:33:10;;;;;;;;;5.00;4.00;;;;;20.06;85.61;100653.09;4957802;28;45350;-73
2022/10/24 10:35:44;;;;;;;;;2.00;2.00;;;;;20.07;85.12;100643.91;4957319;28;47218;-73
2022/10/24 10:38:39;;;;;;;;;4.33;2.00;;;;;20.04;85.83;100639.00;4952469;28;45305;-73
2022/10/24 10:41:14;;;;;;;;;2.00;2.00;;;;;20.16;85.20;100650.56;4942508;28;45227;-73
2022/10/24 10:43:51;;;;;;;;;5.75;4.50;;;;;20.13;84.96;100634.88;4954129;28;46390;-72
2022/10/24 10:46:35;;;;;;;;;7.33;3.33;;;;;20.19;85.26;100654.66;4949334;28;45363;-72
2022/10/24 10:49:22;;;;;;;;;5.00;3.00;;;;;20.21;84.93;100649.84;4959923;28;45377;-72
2022/10/24 10:51:57;;;;;;;;;7.33;3.33;;;;;20.24;84.60;100637.75;4960466;28;45214;-73
2022/10/24 10:54:43;;;;;;;;;3.00;3.00;;;;;20.30;85.10;100648.38;4960688;28;45633;-72
2022/10/24 10:57:18;;;;;;;;;3.50;2.00;;;;;20.30;83.48;100642.19;4959383;28;47174;-74
2022/10/24 11:00:08;;;;;;;;;4.00;2.00;;;;;20.32;83.69;100640.06;4960465;28;45401;-73
2022/10/24 11:02:52;;;;;;;;;3.00;2.00;;;;;20.35;84.42;100653.06;4955982;28;45333;-73
2022/10/24 11:05:41;;;;;;;;;6.50;3.75;;;;;20.42;83.81;100653.72;4959923;28;45395;-73
2022/10/24 11:08:13;;;;;;;;;2.25;2.00;;;;;20.42;83.20;100651.03;4958867;28;45312;-73
2022/10/24 11:10:50;;;;;;;;;4.00;3.00;;;;;20.35;81.80;100654.97;4972927;28;45470;-72
2022/10/24 11:13:26;;;;;;;;;2.33;2.00;;;;;20.44;81.78;100659.72;4959763;28;45187;-73
2022/10/24 11:15:57;;;;;;;;;3.33;2.33;;;;;20.33;80.98;100654.38;4957823;28;45337;-73
2022/10/24 11:18:30;;;;;;;;;2.33;2.33;;;;;20.27;81.53;100648.06;4958437;28;45523;-73
2022/10/24 11:21:07;;;;;;;;;2.33;1.67;;;;;20.22;81.46;100647.97;4955664;28;45566;-73
2022/10/24 11:23:39;;;;;;;;;1.50;0.75;;;;;20.15;81.74;100640.84;4956238;28;45501;-73
2022/10/24 11:26:14;;;;;;;;;2.33;1.33;;;;;20.16;81.14;100647.88;4939838;28;46517;-73
2022/10/24 11:28:48;;;;;;;;;4.25;2.25;;;;;20.18;82.18;100636.84;4956480;28;47020;-73
2022/10/24 11:31:22;;;;;;;;;1.33;1.00;;;;;20.22;82.18;100639.88;4957597;28;45520;-74
2022/10/24 11:34:08;;;;;;;;;3.00;1.00;;;;;20.29;81.99;100644.06;4953600;28;45252;-73